sensor_id;sensor_type;location;lat;lon;timestamp;P1;durP1;ratioP1;P2;durP2;ratioP2
2998;SDS011;1509;51.964;7.628;2023-03-11T00:00:15;8.33;;;4.23;;
2998;SDS011;1509;51.964;7.628;2023-03-11T00:02:46;9.50;;;5.00;;
2998;SDS011;1509;51.964;7.628;2023-03-11T00:05:16;5.73;;;3.80;;
2998;SDS011;1509;51.964;7.628;2023-03-11T00:07:48;7.63;;;4.07;;
2998;SDS011;1509;51.964;7.628;2023-03-11T00:10:15;9.63;;;3.70;;
2998;SDS011;1509;51.964;7.628;2023-03-11T00:12:43;5.17;;;3.27;;
2998;SDS011;1509;51.964;7.628;2023-03-11T00:15:08;7.67;;;3.23;;
2998;SDS011;1509;51.964;7.628;2023-03-11T00:17:34;6.50;;;3.37;;
2998;SDS011;1509;51.964;7.628;2023-03-11T00:20:01;8.07;;;4.20;;
2998;SDS011;1509;51.964;7.628;2023-03-11T00:22:31;4.37;;;3.10;;
2998;SDS011;1509;51.964;7.628;2023-03-11T00:24:57;6.60;;;4.63;;
2998;SDS011;1509;51.964;7.628;2023-03-11T00:27:23;7.33;;;3.80;;
2998;SDS011;1509;51.964;7.628;2023-03-11T00:29:49;6.10;;;3.27;;
2998;SDS011;1509;51.964;7.628;2023-03-11T00:32:14;8.03;;;3.87;;
2998;SDS011;1509;51.964;7.628;2023-03-11T00:34:40;9.33;;;4.40;;
2998;SDS011;1509;51.964;7.628;2023-03-11T00:37:06;7.20;;;5.27;;
2998;SDS011;1509;51.964;7.628;2023-03-11T00:39:32;5.90;;;3.87;;
2998;SDS011;1509;51.964;7.628;2023-03-11T00:41:58;4.60;;;3.47;;
2998;SDS011;1509;51.964;7.628;2023-03-11T00:44:23;6.43;;;4.03;;
2998;SDS011;1509;51.964;7.628;2023-03-11T00:46:49;6.80;;;3.97;;
2998;SDS011;1509;51.964;7.628;2023-03-11T00:49:14;6.40;;;3.80;;
2998;SDS011;1509;51.964;7.628;2023-03-11T00:51:40;6.07;;;3.90;;
2998;SDS011;1509;51.964;7.628;2023-03-11T00:54:06;5.43;;;4.30;;
2998;SDS011;1509;51.964;7.628;2023-03-11T00:56:31;9.60;;;3.37;;
2998;SDS011;1509;51.964;7.628;2023-03-11T00:58:57;5.77;;;3.93;;
2998;SDS011;1509;51.964;7.628;2023-03-11T01:01:25;5.60;;;3.83;;
2998;SDS011;1509;51.964;7.628;2023-03-11T01:03:51;7.47;;;4.30;;
2998;SDS011;1509;51.964;7.628;2023-03-11T01:06:16;9.03;;;4.27;;
2998;SDS011;1509;51.964;7.628;2023-03-11T01:08:42;5.97;;;3.47;;
2998;SDS011;1509;51.964;7.628;2023-03-11T01:11:08;5.70;;;3.47;;
2998;SDS011;1509;51.964;7.628;2023-03-11T01:13:33;5.63;;;3.93;;
2998;SDS011;1509;51.964;7.628;2023-03-11T01:16:02;7.70;;;4.17;;
2998;SDS011;1509;51.964;7.628;2023-03-11T01:18:28;6.80;;;3.70;;
2998;SDS011;1509;51.964;7.628;2023-03-11T01:20:54;6.00;;;3.50;;
2998;SDS011;1509;51.964;7.628;2023-03-11T01:23:19;5.83;;;3.30;;
2998;SDS011;1509;51.964;7.628;2023-03-11T01:25:46;7.53;;;3.53;;
2998;SDS011;1509;51.964;7.628;2023-03-11T01:28:11;5.17;;;3.33;;
2998;SDS011;1509;51.964;7.628;2023-03-11T01:30:38;5.80;;;3.33;;
2998;SDS011;1509;51.964;7.628;2023-03-11T01:33:05;5.37;;;3.00;;
2998;SDS011;1509;51.964;7.628;2023-03-11T01:35:31;5.30;;;3.47;;
2998;SDS011;1509;51.964;7.628;2023-03-11T01:37:57;7.03;;;3.07;;
2998;SDS011;1509;51.964;7.628;2023-03-11T01:40:34;5.40;;;3.30;;
2998;SDS011;1509;51.964;7.628;2023-03-11T01:43:03;5.60;;;2.93;;
2998;SDS011;1509;51.964;7.628;2023-03-11T01:48:05;5.30;;;3.00;;
2998;SDS011;1509;51.964;7.628;2023-03-11T01:50:36;10.13;;;2.80;;
2998;SDS011;1509;51.964;7.628;2023-03-11T01:53:05;4.43;;;3.50;;
2998;SDS011;1509;51.964;7.628;2023-03-11T01:55:31;4.77;;;2.80;;
2998;SDS011;1509;51.964;7.628;2023-03-11T01:57:58;4.27;;;2.40;;
2998;SDS011;1509;51.964;7.628;2023-03-11T02:00:26;7.17;;;2.57;;
2998;SDS011;1509;51.964;7.628;2023-03-11T02:02:54;7.63;;;3.07;;
2998;SDS011;1509;51.964;7.628;2023-03-11T02:05:23;3.10;;;2.53;;
2998;SDS011;1509;51.964;7.628;2023-03-11T02:07:50;7.10;;;3.20;;
2998;SDS011;1509;51.964;7.628;2023-03-11T02:10:18;6.10;;;3.03;;
2998;SDS011;1509;51.964;7.628;2023-03-11T02:12:44;5.47;;;2.73;;
2998;SDS011;1509;51.964;7.628;2023-03-11T02:15:10;5.00;;;2.37;;
2998;SDS011;1509;51.964;7.628;2023-03-11T02:17:37;4.40;;;2.53;;
2998;SDS011;1509;51.964;7.628;2023-03-11T02:22:36;4.80;;;2.53;;
2998;SDS011;1509;51.964;7.628;2023-03-11T02:25:07;3.50;;;2.47;;
2998;SDS011;1509;51.964;7.628;2023-03-11T02:27:46;3.77;;;2.77;;
2998;SDS011;1509;51.964;7.628;2023-03-11T02:30:15;5.00;;;2.63;;
2998;SDS011;1509;51.964;7.628;2023-03-11T02:32:42;10.13;;;3.63;;
2998;SDS011;1509;51.964;7.628;2023-03-11T02:35:12;4.10;;;2.63;;
2998;SDS011;1509;51.964;7.628;2023-03-11T02:37:48;8.37;;;2.67;;
2998;SDS011;1509;51.964;7.628;2023-03-11T02:42:54;4.77;;;2.73;;
2998;SDS011;1509;51.964;7.628;2023-03-11T02:45:24;7.37;;;3.03;;
2998;SDS011;1509;51.964;7.628;2023-03-11T02:47:51;8.93;;;3.20;;
2998;SDS011;1509;51.964;7.628;2023-03-11T02:50:18;5.90;;;2.70;;
2998;SDS011;1509;51.964;7.628;2023-03-11T02:52:46;10.77;;;3.20;;
2998;SDS011;1509;51.964;7.628;2023-03-11T02:55:15;3.87;;;2.30;;
2998;SDS011;1509;51.964;7.628;2023-03-11T02:57:42;8.67;;;2.90;;
2998;SDS011;1509;51.964;7.628;2023-03-11T03:00:09;4.67;;;2.73;;
2998;SDS011;1509;51.964;7.628;2023-03-11T03:02:37;6.63;;;3.20;;
2998;SDS011;1509;51.964;7.628;2023-03-11T03:05:03;8.67;;;2.70;;
2998;SDS011;1509;51.964;7.628;2023-03-11T03:07:29;5.43;;;2.60;;
2998;SDS011;1509;51.964;7.628;2023-03-11T03:09:55;5.37;;;3.27;;
2998;SDS011;1509;51.964;7.628;2023-03-11T03:12:21;5.57;;;3.13;;
2998;SDS011;1509;51.964;7.628;2023-03-11T03:14:46;5.37;;;2.30;;
2998;SDS011;1509;51.964;7.628;2023-03-11T03:17:12;5.77;;;2.47;;
2998;SDS011;1509;51.964;7.628;2023-03-11T03:19:38;4.50;;;2.13;;
2998;SDS011;1509;51.964;7.628;2023-03-11T03:22:03;5.70;;;2.80;;
2998;SDS011;1509;51.964;7.628;2023-03-11T03:24:29;10.07;;;3.30;;
2998;SDS011;1509;51.964;7.628;2023-03-11T03:26:54;4.40;;;2.63;;
2998;SDS011;1509;51.964;7.628;2023-03-11T03:29:20;8.37;;;2.50;;
2998;SDS011;1509;51.964;7.628;2023-03-11T03:31:46;4.20;;;2.77;;
2998;SDS011;1509;51.964;7.628;2023-03-11T03:34:11;9.43;;;2.50;;
2998;SDS011;1509;51.964;7.628;2023-03-11T03:36:37;4.73;;;2.27;;
2998;SDS011;1509;51.964;7.628;2023-03-11T03:39:05;3.30;;;2.30;;
2998;SDS011;1509;51.964;7.628;2023-03-11T03:41:30;12.97;;;2.77;;
2998;SDS011;1509;51.964;7.628;2023-03-11T03:43:56;5.23;;;2.87;;
2998;SDS011;1509;51.964;7.628;2023-03-11T03:46:22;3.83;;;2.13;;
2998;SDS011;1509;51.964;7.628;2023-03-11T03:48:48;6.03;;;3.37;;
2998;SDS011;1509;51.964;7.628;2023-03-11T03:51:14;3.00;;;1.80;;
2998;SDS011;1509;51.964;7.628;2023-03-11T03:53:40;5.43;;;2.23;;
2998;SDS011;1509;51.964;7.628;2023-03-11T03:56:10;5.53;;;2.70;;
2998;SDS011;1509;51.964;7.628;2023-03-11T03:58:38;5.53;;;2.40;;
2998;SDS011;1509;51.964;7.628;2023-03-11T04:01:05;4.77;;;2.50;;
2998;SDS011;1509;51.964;7.628;2023-03-11T04:03:31;4.20;;;2.20;;
2998;SDS011;1509;51.964;7.628;2023-03-11T04:06:09;3.30;;;2.20;;
2998;SDS011;1509;51.964;7.628;2023-03-11T04:08:43;9.87;;;2.80;;
2998;SDS011;1509;51.964;7.628;2023-03-11T04:11:08;5.50;;;2.70;;
2998;SDS011;1509;51.964;7.628;2023-03-11T04:13:34;6.53;;;2.03;;
2998;SDS011;1509;51.964;7.628;2023-03-11T04:16:01;3.60;;;2.23;;
2998;SDS011;1509;51.964;7.628;2023-03-11T04:18:29;3.00;;;1.90;;
2998;SDS011;1509;51.964;7.628;2023-03-11T04:20:54;7.37;;;2.30;;
2998;SDS011;1509;51.964;7.628;2023-03-11T04:23:20;5.00;;;2.27;;
2998;SDS011;1509;51.964;7.628;2023-03-11T04:25:46;5.07;;;2.07;;
2998;SDS011;1509;51.964;7.628;2023-03-11T04:28:11;4.90;;;2.80;;
2998;SDS011;1509;51.964;7.628;2023-03-11T04:30:38;10.00;;;2.40;;
2998;SDS011;1509;51.964;7.628;2023-03-11T04:33:03;3.20;;;1.80;;
2998;SDS011;1509;51.964;7.628;2023-03-11T04:35:29;6.33;;;2.10;;
2998;SDS011;1509;51.964;7.628;2023-03-11T04:37:55;5.63;;;2.90;;
2998;SDS011;1509;51.964;7.628;2023-03-11T04:40:20;4.80;;;2.00;;
2998;SDS011;1509;51.964;7.628;2023-03-11T04:42:46;6.33;;;2.23;;
2998;SDS011;1509;51.964;7.628;2023-03-11T04:45:12;4.70;;;2.07;;
2998;SDS011;1509;51.964;7.628;2023-03-11T04:47:37;4.90;;;1.83;;
2998;SDS011;1509;51.964;7.628;2023-03-11T04:50:03;4.17;;;2.10;;
2998;SDS011;1509;51.964;7.628;2023-03-11T04:52:29;2.80;;;2.10;;
2998;SDS011;1509;51.964;7.628;2023-03-11T04:55:04;2.40;;;1.60;;
2998;SDS011;1509;51.964;7.628;2023-03-11T04:57:30;3.17;;;1.93;;
2998;SDS011;1509;51.964;7.628;2023-03-11T04:59:55;1.77;;;1.57;;
2998;SDS011;1509;51.964;7.628;2023-03-11T05:02:21;3.20;;;1.50;;
2998;SDS011;1509;51.964;7.628;2023-03-11T05:04:46;3.80;;;2.40;;
2998;SDS011;1509;51.964;7.628;2023-03-11T05:07:12;8.80;;;4.00;;
2998;SDS011;1509;51.964;7.628;2023-03-11T05:09:38;3.77;;;2.20;;
2998;SDS011;1509;51.964;7.628;2023-03-11T05:12:04;4.20;;;1.83;;
2998;SDS011;1509;51.964;7.628;2023-03-11T05:14:29;4.63;;;1.57;;
2998;SDS011;1509;51.964;7.628;2023-03-11T05:16:55;2.63;;;1.63;;
2998;SDS011;1509;51.964;7.628;2023-03-11T05:19:21;5.17;;;1.73;;
2998;SDS011;1509;51.964;7.628;2023-03-11T05:21:55;2.07;;;1.40;;
2998;SDS011;1509;51.964;7.628;2023-03-11T05:24:22;3.07;;;1.40;;
2998;SDS011;1509;51.964;7.628;2023-03-11T05:26:49;5.37;;;2.00;;
2998;SDS011;1509;51.964;7.628;2023-03-11T05:29:15;10.50;;;2.07;;
2998;SDS011;1509;51.964;7.628;2023-03-11T05:31:41;5.50;;;1.93;;
2998;SDS011;1509;51.964;7.628;2023-03-11T05:34:07;2.40;;;1.67;;
2998;SDS011;1509;51.964;7.628;2023-03-11T05:36:33;7.27;;;2.20;;
2998;SDS011;1509;51.964;7.628;2023-03-11T05:38:58;3.37;;;2.00;;
2998;SDS011;1509;51.964;7.628;2023-03-11T05:41:24;3.93;;;1.83;;
2998;SDS011;1509;51.964;7.628;2023-03-11T05:43:49;3.63;;;1.57;;
2998;SDS011;1509;51.964;7.628;2023-03-11T05:46:15;5.57;;;2.27;;
2998;SDS011;1509;51.964;7.628;2023-03-11T05:48:40;9.00;;;2.00;;
2998;SDS011;1509;51.964;7.628;2023-03-11T05:51:07;3.53;;;1.43;;
2998;SDS011;1509;51.964;7.628;2023-03-11T05:53:33;3.80;;;1.87;;
2998;SDS011;1509;51.964;7.628;2023-03-11T05:55:59;3.97;;;1.80;;
2998;SDS011;1509;51.964;7.628;2023-03-11T05:58:25;6.43;;;1.73;;
2998;SDS011;1509;51.964;7.628;2023-03-11T06:00:52;3.60;;;1.93;;
2998;SDS011;1509;51.964;7.628;2023-03-11T06:03:19;3.40;;;1.47;;
2998;SDS011;1509;51.964;7.628;2023-03-11T06:05:48;2.40;;;1.57;;
2998;SDS011;1509;51.964;7.628;2023-03-11T06:08:15;4.00;;;1.57;;
2998;SDS011;1509;51.964;7.628;2023-03-11T06:10:41;5.37;;;2.20;;
2998;SDS011;1509;51.964;7.628;2023-03-11T06:13:08;3.20;;;1.90;;
2998;SDS011;1509;51.964;7.628;2023-03-11T06:15:34;8.17;;;2.20;;
2998;SDS011;1509;51.964;7.628;2023-03-11T06:18:01;4.27;;;1.87;;
2998;SDS011;1509;51.964;7.628;2023-03-11T06:20:27;7.33;;;2.27;;
2998;SDS011;1509;51.964;7.628;2023-03-11T06:22:53;10.70;;;1.93;;
2998;SDS011;1509;51.964;7.628;2023-03-11T06:25:18;2.93;;;1.83;;
2998;SDS011;1509;51.964;7.628;2023-03-11T06:27:49;3.73;;;1.60;;
2998;SDS011;1509;51.964;7.628;2023-03-11T06:30:16;6.07;;;1.90;;
2998;SDS011;1509;51.964;7.628;2023-03-11T06:32:43;7.70;;;2.40;;
2998;SDS011;1509;51.964;7.628;2023-03-11T06:35:12;4.67;;;1.70;;
2998;SDS011;1509;51.964;7.628;2023-03-11T06:37:37;9.03;;;2.37;;
2998;SDS011;1509;51.964;7.628;2023-03-11T06:40:04;2.83;;;1.43;;
2998;SDS011;1509;51.964;7.628;2023-03-11T06:42:31;4.27;;;2.20;;
2998;SDS011;1509;51.964;7.628;2023-03-11T06:44:57;3.80;;;1.97;;
2998;SDS011;1509;51.964;7.628;2023-03-11T06:47:23;2.60;;;2.00;;
2998;SDS011;1509;51.964;7.628;2023-03-11T06:49:49;5.10;;;1.87;;
2998;SDS011;1509;51.964;7.628;2023-03-11T06:52:15;5.10;;;1.80;;
2998;SDS011;1509;51.964;7.628;2023-03-11T06:54:41;2.33;;;1.70;;
2998;SDS011;1509;51.964;7.628;2023-03-11T06:57:07;3.13;;;1.80;;
2998;SDS011;1509;51.964;7.628;2023-03-11T06:59:33;4.57;;;1.70;;
2998;SDS011;1509;51.964;7.628;2023-03-11T07:01:59;3.97;;;1.73;;
2998;SDS011;1509;51.964;7.628;2023-03-11T07:04:24;5.10;;;2.00;;
2998;SDS011;1509;51.964;7.628;2023-03-11T07:06:50;8.33;;;2.13;;
2998;SDS011;1509;51.964;7.628;2023-03-11T07:09:16;4.33;;;2.33;;
2998;SDS011;1509;51.964;7.628;2023-03-11T07:11:41;4.60;;;2.00;;
2998;SDS011;1509;51.964;7.628;2023-03-11T07:14:07;4.50;;;2.10;;
2998;SDS011;1509;51.964;7.628;2023-03-11T07:16:33;6.20;;;1.60;;
2998;SDS011;1509;51.964;7.628;2023-03-11T07:18:59;2.70;;;1.80;;
2998;SDS011;1509;51.964;7.628;2023-03-11T07:21:27;2.90;;;1.83;;
2998;SDS011;1509;51.964;7.628;2023-03-11T07:23:54;2.40;;;1.60;;
2998;SDS011;1509;51.964;7.628;2023-03-11T07:26:22;10.10;;;2.43;;
2998;SDS011;1509;51.964;7.628;2023-03-11T07:28:48;3.77;;;1.70;;
2998;SDS011;1509;51.964;7.628;2023-03-11T07:31:15;2.47;;;1.83;;
2998;SDS011;1509;51.964;7.628;2023-03-11T07:33:43;6.17;;;1.90;;
2998;SDS011;1509;51.964;7.628;2023-03-11T07:36:10;4.20;;;2.43;;
2998;SDS011;1509;51.964;7.628;2023-03-11T07:38:37;5.03;;;1.93;;
2998;SDS011;1509;51.964;7.628;2023-03-11T07:41:04;4.33;;;1.63;;
2998;SDS011;1509;51.964;7.628;2023-03-11T07:43:30;4.93;;;1.90;;
2998;SDS011;1509;51.964;7.628;2023-03-11T07:46:06;5.67;;;1.93;;
2998;SDS011;1509;51.964;7.628;2023-03-11T07:48:34;3.87;;;1.67;;
2998;SDS011;1509;51.964;7.628;2023-03-11T07:51:03;4.33;;;1.63;;
2998;SDS011;1509;51.964;7.628;2023-03-11T07:53:31;6.17;;;2.13;;
2998;SDS011;1509;51.964;7.628;2023-03-11T07:55:57;3.23;;;1.87;;
2998;SDS011;1509;51.964;7.628;2023-03-11T07:58:24;2.93;;;1.97;;
2998;SDS011;1509;51.964;7.628;2023-03-11T08:00:50;5.10;;;1.60;;
2998;SDS011;1509;51.964;7.628;2023-03-11T08:03:16;5.60;;;2.03;;
2998;SDS011;1509;51.964;7.628;2023-03-11T08:05:42;3.00;;;1.90;;
2998;SDS011;1509;51.964;7.628;2023-03-11T08:08:07;3.20;;;1.63;;
2998;SDS011;1509;51.964;7.628;2023-03-11T08:10:36;4.23;;;1.97;;
2998;SDS011;1509;51.964;7.628;2023-03-11T08:13:02;3.00;;;1.30;;
2998;SDS011;1509;51.964;7.628;2023-03-11T08:15:28;3.03;;;2.43;;
2998;SDS011;1509;51.964;7.628;2023-03-11T08:17:56;2.43;;;1.70;;
2998;SDS011;1509;51.964;7.628;2023-03-11T08:20:22;4.63;;;1.47;;
2998;SDS011;1509;51.964;7.628;2023-03-11T08:22:48;3.13;;;1.80;;
2998;SDS011;1509;51.964;7.628;2023-03-11T08:25:13;3.57;;;1.50;;
2998;SDS011;1509;51.964;7.628;2023-03-11T08:27:39;2.00;;;1.30;;
2998;SDS011;1509;51.964;7.628;2023-03-11T08:30:06;3.97;;;1.37;;
2998;SDS011;1509;51.964;7.628;2023-03-11T08:32:32;2.27;;;1.50;;
2998;SDS011;1509;51.964;7.628;2023-03-11T08:35:01;6.83;;;1.50;;
2998;SDS011;1509;51.964;7.628;2023-03-11T08:37:26;2.70;;;1.30;;
2998;SDS011;1509;51.964;7.628;2023-03-11T08:39:52;3.03;;;1.50;;
2998;SDS011;1509;51.964;7.628;2023-03-11T08:42:17;3.10;;;1.67;;
2998;SDS011;1509;51.964;7.628;2023-03-11T08:44:43;5.37;;;1.30;;
2998;SDS011;1509;51.964;7.628;2023-03-11T08:47:09;4.30;;;1.43;;
2998;SDS011;1509;51.964;7.628;2023-03-11T08:49:36;3.10;;;1.90;;
2998;SDS011;1509;51.964;7.628;2023-03-11T08:52:02;3.73;;;1.60;;
2998;SDS011;1509;51.964;7.628;2023-03-11T08:54:28;2.47;;;1.30;;
2998;SDS011;1509;51.964;7.628;2023-03-11T08:56:54;2.30;;;1.30;;
2998;SDS011;1509;51.964;7.628;2023-03-11T08:59:19;2.67;;;1.00;;
2998;SDS011;1509;51.964;7.628;2023-03-11T09:01:45;5.83;;;1.47;;
2998;SDS011;1509;51.964;7.628;2023-03-11T09:04:11;4.23;;;1.93;;
2998;SDS011;1509;51.964;7.628;2023-03-11T09:06:40;4.13;;;1.50;;
2998;SDS011;1509;51.964;7.628;2023-03-11T09:09:10;5.33;;;1.27;;
2998;SDS011;1509;51.964;7.628;2023-03-11T09:11:36;3.13;;;1.73;;
2998;SDS011;1509;51.964;7.628;2023-03-11T09:14:02;3.93;;;1.37;;
2998;SDS011;1509;51.964;7.628;2023-03-11T09:16:29;2.80;;;1.43;;
2998;SDS011;1509;51.964;7.628;2023-03-11T09:18:54;3.63;;;1.40;;
2998;SDS011;1509;51.964;7.628;2023-03-11T09:21:20;2.40;;;1.40;;
2998;SDS011;1509;51.964;7.628;2023-03-11T09:23:46;3.80;;;1.53;;
2998;SDS011;1509;51.964;7.628;2023-03-11T09:26:12;2.27;;;1.20;;
2998;SDS011;1509;51.964;7.628;2023-03-11T09:28:39;3.27;;;1.57;;
2998;SDS011;1509;51.964;7.628;2023-03-11T09:31:05;2.67;;;1.37;;
2998;SDS011;1509;51.964;7.628;2023-03-11T09:33:34;2.90;;;1.20;;
2998;SDS011;1509;51.964;7.628;2023-03-11T09:36:04;3.73;;;1.30;;
2998;SDS011;1509;51.964;7.628;2023-03-11T09:38:31;3.53;;;1.47;;
2998;SDS011;1509;51.964;7.628;2023-03-11T09:46:33;4.27;;;1.37;;
2998;SDS011;1509;51.964;7.628;2023-03-11T09:49:18;5.27;;;1.83;;
2998;SDS011;1509;51.964;7.628;2023-03-11T09:52:15;2.87;;;1.47;;
2998;SDS011;1509;51.964;7.628;2023-03-11T09:54:48;2.73;;;1.30;;
2998;SDS011;1509;51.964;7.628;2023-03-11T09:57:23;3.80;;;1.57;;
2998;SDS011;1509;51.964;7.628;2023-03-11T09:59:52;2.45;;;1.50;;
2998;SDS011;1509;51.964;7.628;2023-03-11T10:02:20;3.30;;;1.27;;
2998;SDS011;1509;51.964;7.628;2023-03-11T10:05:05;4.57;;;1.20;;
2998;SDS011;1509;51.964;7.628;2023-03-11T10:08:00;5.63;;;3.10;;
2998;SDS011;1509;51.964;7.628;2023-03-11T10:10:29;2.10;;;1.07;;
2998;SDS011;1509;51.964;7.628;2023-03-11T10:13:12;4.50;;;1.70;;
2998;SDS011;1509;51.964;7.628;2023-03-11T10:18:43;3.90;;;1.27;;
2998;SDS011;1509;51.964;7.628;2023-03-11T10:23:56;4.57;;;0.90;;
2998;SDS011;1509;51.964;7.628;2023-03-11T10:26:30;5.33;;;2.20;;
2998;SDS011;1509;51.964;7.628;2023-03-11T10:29:11;2.63;;;1.43;;
2998;SDS011;1509;51.964;7.628;2023-03-11T10:32:23;3.80;;;1.10;;
2998;SDS011;1509;51.964;7.628;2023-03-11T10:35:06;6.03;;;1.10;;
2998;SDS011;1509;51.964;7.628;2023-03-11T10:37:46;3.10;;;1.47;;
2998;SDS011;1509;51.964;7.628;2023-03-11T10:42:54;2.10;;;1.03;;
2998;SDS011;1509;51.964;7.628;2023-03-11T10:45:24;2.93;;;1.10;;
2998;SDS011;1509;51.964;7.628;2023-03-11T10:47:51;1.70;;;1.00;;
2998;SDS011;1509;51.964;7.628;2023-03-11T10:50:17;3.10;;;1.10;;
2998;SDS011;1509;51.964;7.628;2023-03-11T10:53:05;2.90;;;1.10;;
2998;SDS011;1509;51.964;7.628;2023-03-11T10:55:45;6.03;;;1.73;;
2998;SDS011;1509;51.964;7.628;2023-03-11T10:58:17;2.80;;;1.73;;
2998;SDS011;1509;51.964;7.628;2023-03-11T11:00:45;5.80;;;1.33;;
2998;SDS011;1509;51.964;7.628;2023-03-11T11:03:44;2.83;;;1.20;;
2998;SDS011;1509;51.964;7.628;2023-03-11T11:06:32;2.90;;;1.33;;
2998;SDS011;1509;51.964;7.628;2023-03-11T11:09:06;3.47;;;1.20;;
2998;SDS011;1509;51.964;7.628;2023-03-11T11:11:59;3.33;;;1.27;;
2998;SDS011;1509;51.964;7.628;2023-03-11T11:17:16;4.97;;;1.80;;
2998;SDS011;1509;51.964;7.628;2023-03-11T11:19:44;6.03;;;1.33;;
2998;SDS011;1509;51.964;7.628;2023-03-11T11:22:15;3.60;;;1.30;;
2998;SDS011;1509;51.964;7.628;2023-03-11T11:24:44;3.40;;;1.40;;
2998;SDS011;1509;51.964;7.628;2023-03-11T11:27:20;3.30;;;1.67;;
2998;SDS011;1509;51.964;7.628;2023-03-11T11:29:47;5.00;;;1.40;;
2998;SDS011;1509;51.964;7.628;2023-03-11T11:32:36;3.37;;;1.13;;
2998;SDS011;1509;51.964;7.628;2023-03-11T11:35:05;2.40;;;0.93;;
2998;SDS011;1509;51.964;7.628;2023-03-11T11:37:36;2.17;;;1.00;;
2998;SDS011;1509;51.964;7.628;2023-03-11T11:42:45;6.00;;;1.40;;
2998;SDS011;1509;51.964;7.628;2023-03-11T11:48:03;6.20;;;1.87;;
2998;SDS011;1509;51.964;7.628;2023-03-11T11:50:57;3.30;;;1.23;;
2998;SDS011;1509;51.964;7.628;2023-03-11T11:53:36;4.67;;;1.50;;
2998;SDS011;1509;51.964;7.628;2023-03-11T11:56:06;2.50;;;1.60;;
2998;SDS011;1509;51.964;7.628;2023-03-11T11:58:31;2.20;;;1.30;;
2998;SDS011;1509;51.964;7.628;2023-03-11T12:04:29;7.33;;;1.27;;
2998;SDS011;1509;51.964;7.628;2023-03-11T12:09:49;6.83;;;1.53;;
2998;SDS011;1509;51.964;7.628;2023-03-11T12:12:43;1.60;;;0.90;;
2998;SDS011;1509;51.964;7.628;2023-03-11T12:15:20;2.90;;;1.40;;
2998;SDS011;1509;51.964;7.628;2023-03-11T12:17:51;4.20;;;1.20;;
2998;SDS011;1509;51.964;7.628;2023-03-11T12:20:58;4.37;;;1.10;;
2998;SDS011;1509;51.964;7.628;2023-03-11T12:31:22;3.00;;;1.17;;
2998;SDS011;1509;51.964;7.628;2023-03-11T12:33:54;3.30;;;1.00;;
2998;SDS011;1509;51.964;7.628;2023-03-11T12:36:36;3.60;;;1.10;;
2998;SDS011;1509;51.964;7.628;2023-03-11T12:39:28;3.03;;;1.00;;
2998;SDS011;1509;51.964;7.628;2023-03-11T12:42:13;3.00;;;1.23;;
2998;SDS011;1509;51.964;7.628;2023-03-11T12:44:47;2.20;;;1.13;;
2998;SDS011;1509;51.964;7.628;2023-03-11T12:47:23;4.93;;;1.20;;
2998;SDS011;1509;51.964;7.628;2023-03-11T12:49:54;2.43;;;1.50;;
2998;SDS011;1509;51.964;7.628;2023-03-11T12:52:52;2.83;;;1.70;;
2998;SDS011;1509;51.964;7.628;2023-03-11T12:55:23;2.00;;;1.33;;
2998;SDS011;1509;51.964;7.628;2023-03-11T12:57:56;3.20;;;1.00;;
2998;SDS011;1509;51.964;7.628;2023-03-11T13:00:57;1.83;;;0.90;;
2998;SDS011;1509;51.964;7.628;2023-03-11T13:03:38;3.10;;;1.00;;
2998;SDS011;1509;51.964;7.628;2023-03-11T13:08:53;3.90;;;1.00;;
2998;SDS011;1509;51.964;7.628;2023-03-11T13:16:39;2.87;;;1.83;;
2998;SDS011;1509;51.964;7.628;2023-03-11T13:21:58;2.27;;;1.30;;
2998;SDS011;1509;51.964;7.628;2023-03-11T13:32:06;3.30;;;1.60;;
2998;SDS011;1509;51.964;7.628;2023-03-11T13:34:56;2.13;;;1.27;;
2998;SDS011;1509;51.964;7.628;2023-03-11T13:40:47;2.87;;;1.27;;
2998;SDS011;1509;51.964;7.628;2023-03-11T13:43:14;2.50;;;1.50;;
2998;SDS011;1509;51.964;7.628;2023-03-11T13:45:47;4.40;;;1.70;;
2998;SDS011;1509;51.964;7.628;2023-03-11T13:50:58;4.30;;;1.90;;
2998;SDS011;1509;51.964;7.628;2023-03-11T13:53:31;3.87;;;2.10;;
2998;SDS011;1509;51.964;7.628;2023-03-11T13:56:17;6.90;;;2.90;;
2998;SDS011;1509;51.964;7.628;2023-03-11T13:58:53;2.80;;;1.67;;
2998;SDS011;1509;51.964;7.628;2023-03-11T14:01:18;4.60;;;2.00;;
2998;SDS011;1509;51.964;7.628;2023-03-11T14:03:45;4.20;;;2.23;;
2998;SDS011;1509;51.964;7.628;2023-03-11T14:06:15;3.03;;;1.67;;
2998;SDS011;1509;51.964;7.628;2023-03-11T14:08:44;4.27;;;1.50;;
2998;SDS011;1509;51.964;7.628;2023-03-11T14:11:23;4.80;;;2.30;;
2998;SDS011;1509;51.964;7.628;2023-03-11T14:13:51;6.70;;;2.30;;
2998;SDS011;1509;51.964;7.628;2023-03-11T14:21:25;3.73;;;2.27;;
2998;SDS011;1509;51.964;7.628;2023-03-11T14:23:52;6.87;;;2.07;;
2998;SDS011;1509;51.964;7.628;2023-03-11T14:26:20;6.90;;;2.40;;
2998;SDS011;1509;51.964;7.628;2023-03-11T14:29:07;4.00;;;1.63;;
2998;SDS011;1509;51.964;7.628;2023-03-11T14:31:40;6.40;;;1.83;;
2998;SDS011;1509;51.964;7.628;2023-03-11T14:34:18;4.10;;;2.13;;
2998;SDS011;1509;51.964;7.628;2023-03-11T14:36:51;3.60;;;1.90;;
2998;SDS011;1509;51.964;7.628;2023-03-11T14:44:38;3.63;;;1.57;;
2998;SDS011;1509;51.964;7.628;2023-03-11T14:47:31;2.30;;;1.43;;
2998;SDS011;1509;51.964;7.628;2023-03-11T14:50:00;4.10;;;1.57;;
2998;SDS011;1509;51.964;7.628;2023-03-11T14:52:31;3.73;;;1.53;;
2998;SDS011;1509;51.964;7.628;2023-03-11T14:55:04;2.83;;;1.53;;
2998;SDS011;1509;51.964;7.628;2023-03-11T15:00:03;2.20;;;1.30;;
2998;SDS011;1509;51.964;7.628;2023-03-11T15:08:27;2.90;;;1.57;;
2998;SDS011;1509;51.964;7.628;2023-03-11T15:11:03;3.47;;;1.40;;
2998;SDS011;1509;51.964;7.628;2023-03-11T15:13:35;3.13;;;1.53;;
2998;SDS011;1509;51.964;7.628;2023-03-11T15:16:03;2.80;;;1.47;;
2998;SDS011;1509;51.964;7.628;2023-03-11T15:18:34;2.43;;;1.53;;
2998;SDS011;1509;51.964;7.628;2023-03-11T15:21:06;2.87;;;1.47;;
2998;SDS011;1509;51.964;7.628;2023-03-11T15:23:38;3.60;;;1.43;;
2998;SDS011;1509;51.964;7.628;2023-03-11T15:26:24;3.30;;;1.53;;
2998;SDS011;1509;51.964;7.628;2023-03-11T15:28:53;2.60;;;1.77;;
2998;SDS011;1509;51.964;7.628;2023-03-11T15:31:31;2.33;;;1.20;;
2998;SDS011;1509;51.964;7.628;2023-03-11T15:34:08;1.67;;;1.07;;
2998;SDS011;1509;51.964;7.628;2023-03-11T15:36:52;6.53;;;1.70;;
2998;SDS011;1509;51.964;7.628;2023-03-11T15:41:58;3.93;;;1.37;;
2998;SDS011;1509;51.964;7.628;2023-03-11T15:44:40;4.90;;;1.70;;
2998;SDS011;1509;51.964;7.628;2023-03-11T15:47:25;2.33;;;1.60;;
2998;SDS011;1509;51.964;7.628;2023-03-11T15:49:53;1.77;;;1.17;;
2998;SDS011;1509;51.964;7.628;2023-03-11T15:52:19;2.87;;;1.40;;
2998;SDS011;1509;51.964;7.628;2023-03-11T15:54:45;2.73;;;1.10;;
2998;SDS011;1509;51.964;7.628;2023-03-11T15:57:16;2.50;;;1.17;;
2998;SDS011;1509;51.964;7.628;2023-03-11T15:59:50;2.67;;;1.43;;
2998;SDS011;1509;51.964;7.628;2023-03-11T16:02:27;1.70;;;1.10;;
2998;SDS011;1509;51.964;7.628;2023-03-11T16:04:55;2.80;;;1.50;;
2998;SDS011;1509;51.964;7.628;2023-03-11T16:07:21;1.90;;;1.20;;
2998;SDS011;1509;51.964;7.628;2023-03-11T16:09:47;4.00;;;1.30;;
2998;SDS011;1509;51.964;7.628;2023-03-11T16:12:13;2.43;;;1.50;;
2998;SDS011;1509;51.964;7.628;2023-03-11T16:14:43;4.00;;;1.30;;
2998;SDS011;1509;51.964;7.628;2023-03-11T16:17:10;2.10;;;1.23;;
2998;SDS011;1509;51.964;7.628;2023-03-11T16:19:39;2.80;;;1.27;;
2998;SDS011;1509;51.964;7.628;2023-03-11T16:22:11;4.87;;;1.60;;
2998;SDS011;1509;51.964;7.628;2023-03-11T16:24:40;3.03;;;1.20;;
2998;SDS011;1509;51.964;7.628;2023-03-11T16:27:08;4.37;;;2.13;;
2998;SDS011;1509;51.964;7.628;2023-03-11T16:29:37;2.10;;;1.20;;
2998;SDS011;1509;51.964;7.628;2023-03-11T16:32:03;4.10;;;1.50;;
2998;SDS011;1509;51.964;7.628;2023-03-11T16:34:28;4.30;;;1.40;;
2998;SDS011;1509;51.964;7.628;2023-03-11T16:36:54;4.17;;;1.53;;
2998;SDS011;1509;51.964;7.628;2023-03-11T16:39:20;2.00;;;1.03;;
2998;SDS011;1509;51.964;7.628;2023-03-11T16:41:45;4.60;;;1.70;;
2998;SDS011;1509;51.964;7.628;2023-03-11T16:44:11;1.70;;;1.23;;
2998;SDS011;1509;51.964;7.628;2023-03-11T16:46:36;3.60;;;2.10;;
2998;SDS011;1509;51.964;7.628;2023-03-11T16:49:02;2.97;;;1.67;;
2998;SDS011;1509;51.964;7.628;2023-03-11T16:51:29;4.30;;;1.73;;
2998;SDS011;1509;51.964;7.628;2023-03-11T16:53:55;2.73;;;1.73;;
2998;SDS011;1509;51.964;7.628;2023-03-11T16:56:20;6.03;;;2.47;;
2998;SDS011;1509;51.964;7.628;2023-03-11T16:58:46;4.97;;;2.80;;